createdAt,value
2017-01-29T00:00:41.664Z,0
2017-01-29T00:01:55.998Z,0
2017-01-29T00:03:10.346Z,0
2017-01-29T00:04:24.746Z,0
2017-01-29T00:05:39.107Z,0
2017-01-29T00:06:52.870Z,0
2017-01-29T00:08:07.228Z,0
2017-01-29T00:09:21.560Z,0
2017-01-29T00:10:35.914Z,0
2017-01-29T00:11:50.291Z,0
2017-01-29T00:13:04.670Z,0
2017-01-29T00:14:17.109Z,0
2017-01-29T00:15:31.478Z,0
2017-01-29T00:16:45.843Z,0
2017-01-29T00:18:00.206Z,0
2017-01-29T00:19:13.938Z,0
2017-01-29T00:20:28.295Z,0
2017-01-29T00:21:42.679Z,0
2017-01-29T00:22:57.059Z,0
2017-01-29T00:24:11.513Z,0
2017-01-29T00:25:25.882Z,0
2017-01-29T00:26:40.253Z,0
2017-01-29T00:27:54.668Z,0
2017-01-29T00:29:09.074Z,0
2017-01-29T00:30:23.494Z,0
2017-01-29T00:31:37.232Z,0
2017-01-29T00:32:51.001Z,0
2017-01-29T00:34:05.399Z,0
2017-01-29T00:35:18.468Z,0
2017-01-29T00:36:32.832Z,0
2017-01-29T00:37:46.561Z,0
2017-01-29T00:39:00.914Z,0
2017-01-29T00:40:14.668Z,0
2017-01-29T00:41:29.022Z,0
2017-01-29T00:42:43.383Z,0
2017-01-29T00:43:57.782Z,0
2017-01-29T00:45:12.161Z,0
2017-01-29T00:46:26.518Z,0
2017-01-29T00:47:40.409Z,0
2017-01-29T00:48:54.130Z,0
2017-01-29T00:50:08.496Z,0
2017-01-29T00:51:21.568Z,0
2017-01-29T00:52:35.954Z,0
2017-01-29T00:53:50.393Z,0
2017-01-29T00:55:04.810Z,0
2017-01-29T00:56:18.517Z,0
2017-01-29T00:57:32.941Z,0
2017-01-29T00:58:46.670Z,0
2017-01-29T01:00:00.389Z,0
2017-01-29T01:01:14.111Z,0
2017-01-29T01:02:28.502Z,0
2017-01-29T01:03:42.858Z,0
2017-01-29T01:04:57.207Z,0
2017-01-29T01:06:10.896Z,0
2017-01-29T01:07:25.250Z,0
2017-01-29T01:08:39.645Z,0
2017-01-29T01:09:54.044Z,0
2017-01-29T01:11:08.415Z,0
2017-01-29T01:12:21.511Z,0
2017-01-29T01:13:35.903Z,0
2017-01-29T01:14:50.320Z,0
2017-01-29T01:16:04.060Z,0
2017-01-29T01:17:18.399Z,0
2017-01-29T01:18:32.760Z,0
2017-01-29T01:19:46.696Z,0
2017-01-29T01:21:01.063Z,0
2017-01-29T01:22:15.451Z,0
2017-01-29T01:23:29.853Z,0
2017-01-29T01:24:44.242Z,0
2017-01-29T01:25:58.567Z,0
2017-01-29T01:27:12.935Z,0
2017-01-29T01:28:27.343Z,0
2017-01-29T01:29:41.727Z,0
2017-01-29T01:30:56.171Z,0
2017-01-29T01:32:10.535Z,0
2017-01-29T01:33:24.913Z,0
2017-01-29T01:34:39.267Z,0
2017-01-29T01:35:53.648Z,0
2017-01-29T01:37:08.014Z,0
2017-01-29T01:38:21.732Z,0
2017-01-29T01:39:36.286Z,0
2017-01-29T01:40:50.625Z,0
2017-01-29T01:42:04.997Z,0
2017-01-29T01:43:18.732Z,0
2017-01-29T01:44:32.448Z,0
2017-01-29T01:45:46.144Z,0
2017-01-29T01:47:00.488Z,0
2017-01-29T01:48:14.904Z,0
2017-01-29T01:49:29.276Z,0
2017-01-29T01:50:43.674Z,0
2017-01-29T01:51:58.053Z,0
2017-01-29T01:53:12.443Z,0
2017-01-29T01:54:26.156Z,0
2017-01-29T01:55:40.502Z,0
2017-01-29T01:56:54.237Z,0
2017-01-29T01:58:07.982Z,0
2017-01-29T01:59:21.754Z,0
2017-01-29T02:00:36.102Z,0
2017-01-29T02:01:50.480Z,0
2017-01-29T02:03:04.847Z,0
2017-01-29T02:04:19.263Z,0
2017-01-29T02:05:33.673Z,0
2017-01-29T02:06:47.415Z,0
2017-01-29T02:08:01.772Z,0
2017-01-29T02:09:16.168Z,0
2017-01-29T02:10:29.913Z,0
2017-01-29T02:11:44.292Z,0
2017-01-29T02:12:58.653Z,0
2017-01-29T02:14:13.035Z,0
2017-01-29T02:15:27.604Z,0
2017-01-29T02:16:41.976Z,0
2017-01-29T02:17:56.395Z,0
2017-01-29T02:19:10.120Z,0
2017-01-29T02:20:24.487Z,0
2017-01-29T02:21:38.838Z,0
2017-01-29T02:22:53.224Z,0
2017-01-29T02:24:07.668Z,0
2017-01-29T02:25:22.020Z,0
2017-01-29T02:26:36.400Z,0
2017-01-29T02:27:50.799Z,0
2017-01-29T02:29:04.556Z,0
2017-01-29T02:30:18.260Z,0
2017-01-29T02:31:32.597Z,0
2017-01-29T02:32:46.998Z,0
2017-01-29T02:34:01.388Z,0
2017-01-29T02:35:15.761Z,0
2017-01-29T02:36:30.093Z,0
2017-01-29T02:37:44.478Z,0
2017-01-29T02:38:58.852Z,0
2017-01-29T02:40:12.584Z,0
2017-01-29T02:41:26.309Z,0
2017-01-29T02:42:40.866Z,0
2017-01-29T02:43:54.592Z,0
2017-01-29T02:45:08.336Z,0
2017-01-29T02:46:22.740Z,0
2017-01-29T02:47:37.100Z,0
2017-01-29T02:48:50.820Z,0
2017-01-29T02:50:05.208Z,0
2017-01-29T02:51:19.589Z,0
2017-01-29T02:52:33.925Z,0
2017-01-29T02:53:48.305Z,0
2017-01-29T02:55:02.015Z,0
2017-01-29T02:56:16.387Z,0
2017-01-29T02:57:30.765Z,0
2017-01-29T02:58:45.135Z,0
2017-01-29T02:59:59.555Z,0
2017-01-29T03:01:13.317Z,0
2017-01-29T03:02:27.719Z,0
2017-01-29T03:03:42.088Z,0
2017-01-29T03:04:56.446Z,0
2017-01-29T03:06:08.879Z,0
2017-01-29T03:07:23.266Z,0
2017-01-29T03:08:37.621Z,0
2017-01-29T03:09:52.008Z,0
2017-01-29T03:11:06.396Z,0
2017-01-29T03:12:20.813Z,0
2017-01-29T03:13:35.151Z,0
2017-01-29T03:14:49.519Z,0
2017-01-29T03:16:03.919Z,0
2017-01-29T03:17:18.276Z,0
2017-01-29T03:18:32.648Z,0
2017-01-29T03:19:47.021Z,0
2017-01-29T03:21:01.384Z,0
2017-01-29T03:22:14.457Z,0
2017-01-29T03:23:28.846Z,0
2017-01-29T03:24:43.205Z,0
2017-01-29T03:25:56.958Z,0
2017-01-29T03:27:10.675Z,0
2017-01-29T03:28:26.287Z,0
2017-01-29T03:29:40.763Z,0
2017-01-29T03:30:55.366Z,0
2017-01-29T03:32:09.750Z,0
2017-01-29T03:33:24.125Z,0
2017-01-29T03:34:38.504Z,0
2017-01-29T03:35:52.881Z,0
2017-01-29T03:37:07.241Z,0
2017-01-29T03:38:20.977Z,0
2017-01-29T03:39:35.383Z,0
2017-01-29T03:40:49.730Z,0
2017-01-29T03:42:04.065Z,0
2017-01-29T03:43:18.408Z,0
2017-01-29T03:44:32.824Z,0
2017-01-29T03:45:47.208Z,0
2017-01-29T03:47:01.551Z,0
2017-01-29T03:48:14.594Z,0
2017-01-29T03:49:28.936Z,0
2017-01-29T03:50:43.290Z,0
2017-01-29T03:51:57.702Z,0
2017-01-29T03:53:12.081Z,0
2017-01-29T03:54:26.425Z,0
2017-01-29T03:55:40.795Z,0
2017-01-29T03:56:55.180Z,0
2017-01-29T03:58:08.918Z,0
2017-01-29T03:59:23.357Z,0
2017-01-29T04:00:37.711Z,0
2017-01-29T04:01:52.072Z,0
2017-01-29T04:03:06.438Z,0
2017-01-29T04:04:20.156Z,0
2017-01-29T04:05:34.510Z,0
2017-01-29T04:06:48.868Z,0
2017-01-29T04:08:03.223Z,0
2017-01-29T04:09:17.583Z,0
2017-01-29T04:10:31.941Z,0
2017-01-29T04:11:46.326Z,0
2017-01-29T04:13:00.685Z,0
2017-01-29T04:14:13.123Z,0
2017-01-29T04:15:27.491Z,0
2017-01-29T04:16:41.899Z,0
2017-01-29T04:17:56.279Z,0
2017-01-29T04:19:10.006Z,0
2017-01-29T04:20:24.372Z,0
2017-01-29T04:21:38.059Z,0
2017-01-29T04:22:52.453Z,0
2017-01-29T04:24:06.810Z,0
2017-01-29T04:25:19.897Z,0
2017-01-29T04:26:34.269Z,0
2017-01-29T04:27:48.659Z,0
2017-01-29T04:29:03.069Z,0
2017-01-29T04:30:17.474Z,0
2017-01-29T04:31:31.896Z,0
2017-01-29T04:32:46.263Z,0
2017-01-29T04:34:00.647Z,0
2017-01-29T04:35:14.991Z,0
2017-01-29T04:36:29.375Z,0
2017-01-29T04:37:43.775Z,0
2017-01-29T04:38:57.482Z,0
2017-01-29T04:40:11.839Z,0
2017-01-29T04:41:26.226Z,0
2017-01-29T04:42:40.578Z,0
2017-01-29T04:43:54.931Z,0
2017-01-29T04:45:09.256Z,0
2017-01-29T04:46:23.605Z,0
2017-01-29T04:47:37.994Z,0
2017-01-29T04:48:52.393Z,0
2017-01-29T04:50:06.781Z,0
2017-01-29T04:51:20.532Z,0
2017-01-29T04:52:34.890Z,0
2017-01-29T04:53:49.251Z,0
2017-01-29T04:55:03.002Z,0
2017-01-29T04:56:17.387Z,0
2017-01-29T04:57:31.817Z,0
2017-01-29T04:58:46.153Z,0
2017-01-29T05:00:00.539Z,0
2017-01-29T05:01:14.270Z,0
2017-01-29T05:02:28.619Z,0
2017-01-29T05:03:43.008Z,0
2017-01-29T05:04:57.354Z,0
2017-01-29T05:06:10.437Z,0
2017-01-29T05:07:24.799Z,0
2017-01-29T05:08:39.185Z,0
2017-01-29T05:09:53.533Z,0
2017-01-29T05:11:07.900Z,0
2017-01-29T05:12:21.641Z,0
2017-01-29T05:13:35.983Z,0
2017-01-29T05:14:50.354Z,0
2017-01-29T05:16:04.735Z,0
2017-01-29T05:17:18.449Z,0
2017-01-29T05:18:32.857Z,0
2017-01-29T05:19:47.225Z,0
2017-01-29T05:21:01.593Z,0
2017-01-29T05:22:14.700Z,0
2017-01-29T05:23:29.072Z,0
2017-01-29T05:24:43.449Z,0
2017-01-29T05:25:57.857Z,0
2017-01-29T05:27:12.246Z,0
2017-01-29T05:28:26.631Z,0
2017-01-29T05:29:41.009Z,0
2017-01-29T05:30:55.423Z,0
2017-01-29T05:32:09.219Z,0
2017-01-29T05:33:23.610Z,0
2017-01-29T05:34:37.985Z,0
2017-01-29T05:35:52.344Z,0
2017-01-29T05:37:06.759Z,0
2017-01-29T05:38:20.486Z,0
2017-01-29T05:39:34.840Z,0
2017-01-29T05:40:48.559Z,0
2017-01-29T05:42:02.904Z,0
2017-01-29T05:43:17.299Z,0
2017-01-29T05:44:31.661Z,0
2017-01-29T05:45:46.024Z,0
2017-01-29T05:47:00.376Z,0
2017-01-29T05:48:14.748Z,0
2017-01-29T05:49:29.123Z,0
2017-01-29T05:50:43.538Z,0
2017-01-29T05:51:57.894Z,0
2017-01-29T05:53:11.616Z,0
2017-01-29T05:54:26.012Z,0
2017-01-29T05:55:40.354Z,0
2017-01-29T05:56:54.714Z,0
2017-01-29T05:58:08.426Z,0
2017-01-29T05:59:22.783Z,0
2017-01-29T06:00:37.124Z,0
2017-01-29T06:01:51.515Z,0
2017-01-29T06:03:05.885Z,0
2017-01-29T06:04:19.621Z,0
2017-01-29T06:05:34.008Z,0
2017-01-29T06:06:48.375Z,0
2017-01-29T06:08:02.742Z,0
2017-01-29T06:09:17.122Z,0
2017-01-29T06:10:31.521Z,0
2017-01-29T06:11:45.217Z,0
2017-01-29T06:12:59.599Z,0
2017-01-29T06:14:13.972Z,0
2017-01-29T06:15:28.357Z,0
2017-01-29T06:16:42.720Z,0
2017-01-29T06:17:57.114Z,0
2017-01-29T06:19:10.858Z,0
2017-01-29T06:20:25.258Z,0
2017-01-29T06:21:39.636Z,0
2017-01-29T06:22:54.018Z,0
2017-01-29T06:24:08.425Z,0
2017-01-29T06:25:21.495Z,0
2017-01-29T06:26:35.223Z,0
2017-01-29T06:27:49.658Z,0
2017-01-29T06:29:03.387Z,0
2017-01-29T06:30:17.760Z,0
2017-01-29T06:31:32.148Z,0
2017-01-29T06:32:46.481Z,0
2017-01-29T06:34:00.832Z,0
2017-01-29T06:35:14.559Z,0
2017-01-29T06:36:28.932Z,0
2017-01-29T06:37:43.278Z,0
2017-01-29T06:38:57.617Z,0
2017-01-29T06:40:12.009Z,0
2017-01-29T06:41:25.818Z,0
2017-01-29T06:42:39.541Z,0
2017-01-29T06:43:53.274Z,0
2017-01-29T06:45:07.655Z,0
2017-01-29T06:46:21.397Z,0
2017-01-29T06:47:35.816Z,0
2017-01-29T06:48:50.164Z,0
2017-01-29T06:50:04.575Z,0
2017-01-29T06:51:18.928Z,0
2017-01-29T06:52:33.312Z,0
2017-01-29T06:53:47.059Z,0
2017-01-29T06:55:01.464Z,0
2017-01-29T06:56:14.590Z,0
2017-01-29T06:57:28.930Z,0
2017-01-29T06:58:42.659Z,0
2017-01-29T06:59:57.012Z,0
2017-01-29T07:01:11.382Z,0
2017-01-29T07:02:25.779Z,0
2017-01-29T07:03:40.155Z,0
2017-01-29T07:04:54.487Z,0
2017-01-29T07:06:08.202Z,0
2017-01-29T07:07:21.894Z,0
2017-01-29T07:08:36.266Z,0
2017-01-29T07:09:50.646Z,0
2017-01-29T07:11:05.069Z,0
2017-01-29T07:12:19.449Z,0
2017-01-29T07:13:33.845Z,0
2017-01-29T07:14:48.174Z,0
2017-01-29T07:16:02.555Z,0
2017-01-29T07:17:16.917Z,0
2017-01-29T07:18:30.670Z,0
2017-01-29T07:19:44.984Z,0
2017-01-29T07:20:59.369Z,0
2017-01-29T07:22:13.790Z,0
2017-01-29T07:23:28.161Z,0
2017-01-29T07:24:42.543Z,0
2017-01-29T07:25:56.896Z,0
2017-01-29T07:27:11.278Z,0
2017-01-29T07:28:25.631Z,0
2017-01-29T07:29:39.957Z,0
2017-01-29T07:30:53.650Z,0
2017-01-29T07:32:08.019Z,0
2017-01-29T07:33:21.715Z,0
2017-01-29T07:34:36.055Z,0
2017-01-29T07:35:50.420Z,0
2017-01-29T07:37:04.807Z,0
2017-01-29T07:38:17.930Z,0
2017-01-29T07:39:32.308Z,0
2017-01-29T07:40:46.686Z,0
2017-01-29T07:42:01.061Z,0
2017-01-29T07:43:15.461Z,0
2017-01-29T07:44:29.192Z,0
2017-01-29T07:45:43.582Z,0
2017-01-29T07:46:57.917Z,0
2017-01-29T07:48:10.985Z,0
2017-01-29T07:49:24.692Z,0
2017-01-29T07:50:39.051Z,0
2017-01-29T07:51:53.394Z,0
2017-01-29T07:53:07.105Z,0
2017-01-29T07:54:20.801Z,0
2017-01-29T07:55:35.205Z,0
2017-01-29T07:56:49.594Z,0
2017-01-29T07:58:03.969Z,0
2017-01-29T07:59:18.330Z,0
2017-01-29T08:00:32.706Z,0
2017-01-29T08:01:47.089Z,0
2017-01-29T08:03:01.466Z,0
2017-01-29T08:04:15.783Z,0
2017-01-29T08:05:30.156Z,0
2017-01-29T08:06:44.536Z,0
2017-01-29T08:07:58.891Z,0
2017-01-29T08:09:13.246Z,0
2017-01-29T08:10:26.338Z,0
2017-01-29T08:11:40.726Z,0
2017-01-29T08:12:55.091Z,0
2017-01-29T08:14:09.478Z,0
2017-01-29T08:15:23.860Z,0
2017-01-29T08:16:37.604Z,0
2017-01-29T08:17:51.989Z,0
2017-01-29T08:19:06.341Z,0
2017-01-29T08:20:20.069Z,0
2017-01-29T08:21:34.447Z,0
2017-01-29T08:22:48.839Z,0
2017-01-29T08:24:03.220Z,0
2017-01-29T08:25:17.590Z,0
2017-01-29T08:26:31.983Z,0
2017-01-29T08:27:46.340Z,0
2017-01-29T08:29:00.707Z,0
2017-01-29T08:30:15.069Z,0
2017-01-29T08:31:29.445Z,5
2017-01-29T08:32:43.808Z,5
2017-01-29T08:33:57.538Z,5
2017-01-29T08:35:11.265Z,5
2017-01-29T08:36:24.970Z,10
2017-01-29T08:37:38.698Z,10
2017-01-29T08:38:53.036Z,10
2017-01-29T08:40:06.115Z,10
2017-01-29T08:41:20.493Z,10
2017-01-29T08:42:34.842Z,15
2017-01-29T08:43:49.204Z,15
2017-01-29T08:45:03.585Z,20
2017-01-29T08:46:17.341Z,20
2017-01-29T08:47:31.757Z,25
2017-01-29T08:48:46.177Z,30
2017-01-29T08:50:00.555Z,35
2017-01-29T08:51:14.969Z,45
2017-01-29T08:52:29.366Z,50
2017-01-29T08:53:43.129Z,55
2017-01-29T08:54:57.494Z,60
2017-01-29T08:56:11.868Z,65
2017-01-29T08:57:25.642Z,75
2017-01-29T08:58:39.993Z,85
2017-01-29T08:59:54.352Z,95
2017-01-29T09:01:08.717Z,100
2017-01-29T09:02:22.415Z,110
2017-01-29T09:03:36.792Z,125
2017-01-29T09:04:51.152Z,140
2017-01-29T09:06:05.518Z,155
2017-01-29T09:07:19.261Z,170
2017-01-29T09:08:32.983Z,180
2017-01-29T09:09:46.736Z,180
2017-01-29T09:11:01.086Z,185
2017-01-29T09:12:14.997Z,190
2017-01-29T09:13:29.417Z,200
2017-01-29T09:14:43.783Z,240
2017-01-29T09:15:58.192Z,240
2017-01-29T09:17:12.547Z,220
2017-01-29T09:18:26.886Z,220
2017-01-29T09:19:40.602Z,225
2017-01-29T09:20:54.954Z,235
2017-01-29T09:22:09.308Z,250
2017-01-29T09:23:23.060Z,270
2017-01-29T09:24:36.782Z,300
2017-01-29T09:25:51.117Z,335
2017-01-29T09:27:05.481Z,370
2017-01-29T09:28:19.855Z,420
2017-01-29T09:29:34.198Z,490
2017-01-29T09:30:48.575Z,575
2017-01-29T09:32:02.966Z,645
2017-01-29T09:33:16.684Z,665
2017-01-29T09:34:31.071Z,655
2017-01-29T09:35:45.419Z,660
2017-01-29T09:36:59.177Z,730
2017-01-29T09:38:13.524Z,760
2017-01-29T09:39:27.911Z,820
2017-01-29T09:40:42.289Z,830
2017-01-29T09:41:56.679Z,855
2017-01-29T09:43:11.073Z,835
2017-01-29T09:44:24.777Z,640
2017-01-29T09:45:39.169Z,540
2017-01-29T09:46:53.564Z,525
2017-01-29T09:48:06.652Z,520
2017-01-29T09:49:20.378Z,535
2017-01-29T09:50:34.765Z,560
2017-01-29T09:51:49.146Z,655
2017-01-29T09:53:03.519Z,710
2017-01-29T09:54:17.916Z,765
2017-01-29T09:55:32.294Z,785
2017-01-29T09:56:46.697Z,800
2017-01-29T09:58:01.117Z,800
2017-01-29T09:59:15.482Z,765
2017-01-29T10:00:29.893Z,710
2017-01-29T10:01:44.240Z,700
2017-01-29T10:02:58.717Z,570
2017-01-29T10:04:12.434Z,555
2017-01-29T10:05:26.786Z,570
2017-01-29T10:06:41.141Z,620
2017-01-29T10:07:55.501Z,590
2017-01-29T10:09:09.891Z,825
2017-01-29T10:10:24.258Z,840
2017-01-29T10:11:38.005Z,770
2017-01-29T10:12:52.403Z,780
2017-01-29T10:14:06.768Z,730
2017-01-29T10:15:19.847Z,675
2017-01-29T10:16:34.201Z,665
2017-01-29T10:17:48.566Z,655
2017-01-29T10:19:02.943Z,640
2017-01-29T10:20:16.018Z,630
2017-01-29T10:21:30.373Z,630
2017-01-29T10:22:44.752Z,620
2017-01-29T10:23:59.101Z,620
2017-01-29T10:25:13.528Z,635
2017-01-29T10:26:27.863Z,655
2017-01-29T10:27:41.635Z,660
2017-01-29T10:28:55.992Z,650
2017-01-29T10:30:10.358Z,645
2017-01-29T10:31:24.721Z,650
2017-01-29T10:32:39.090Z,665
2017-01-29T10:33:53.441Z,695
2017-01-29T10:35:07.191Z,725
2017-01-29T10:36:20.890Z,760
2017-01-29T10:37:35.271Z,840
2017-01-29T10:38:49.622Z,970
2017-01-29T10:40:04.005Z,900
2017-01-29T10:41:18.329Z,890
2017-01-29T10:42:32.028Z,895
2017-01-29T10:43:45.731Z,1145
2017-01-29T10:45:00.126Z,1690
2017-01-29T10:46:13.212Z,2145
2017-01-29T10:47:27.564Z,1690
2017-01-29T10:48:41.951Z,2260
2017-01-29T10:49:56.337Z,1820
2017-01-29T10:51:10.745Z,2095
2017-01-29T10:52:24.502Z,1200
2017-01-29T10:53:38.225Z,1965
2017-01-29T10:54:52.608Z,2160
2017-01-29T10:56:06.973Z,1735
2017-01-29T10:57:21.606Z,2130
2017-01-29T10:58:35.952Z,2145
2017-01-29T10:59:50.356Z,2120
2017-01-29T11:01:04.075Z,2105
2017-01-29T11:02:18.444Z,2065
2017-01-29T11:03:32.821Z,2000
2017-01-29T11:04:46.573Z,1865
2017-01-29T11:06:00.913Z,1850
2017-01-29T11:07:15.270Z,1845
2017-01-29T11:08:29.677Z,1830
2017-01-29T11:09:44.029Z,1970
2017-01-29T11:10:58.382Z,2895
2017-01-29T11:12:12.109Z,3150
2017-01-29T11:13:26.502Z,2950
2017-01-29T11:14:40.871Z,2865
2017-01-29T11:15:55.257Z,2655
2017-01-29T11:17:09.661Z,2890
2017-01-29T11:18:24.054Z,3065
2017-01-29T11:19:38.418Z,3225
2017-01-29T11:20:52.832Z,2990
2017-01-29T11:22:07.193Z,2250
2017-01-29T11:23:20.917Z,3035
2017-01-29T11:24:35.302Z,3105
2017-01-29T11:25:48.398Z,2265
2017-01-29T11:27:02.801Z,2220
2017-01-29T11:28:16.639Z,1675
2017-01-29T11:29:31.042Z,1525
2017-01-29T11:30:45.404Z,1460
2017-01-29T11:31:59.792Z,1365
2017-01-29T11:33:14.166Z,1340
2017-01-29T11:34:28.564Z,1285
2017-01-29T11:35:42.945Z,1275
2017-01-29T11:36:57.316Z,1275
2017-01-29T11:38:11.711Z,1245
2017-01-29T11:39:26.091Z,1490
2017-01-29T11:40:40.430Z,1920
2017-01-29T11:41:54.813Z,1315
2017-01-29T11:43:08.561Z,1170
2017-01-29T11:44:22.985Z,1040
2017-01-29T11:45:37.361Z,975
2017-01-29T11:46:51.764Z,970
2017-01-29T11:48:06.143Z,1000
2017-01-29T11:49:19.845Z,1080
2017-01-29T11:50:34.212Z,1150
2017-01-29T11:51:47.970Z,1215
2017-01-29T11:53:02.358Z,1390
2017-01-29T11:54:15.428Z,1460
2017-01-29T11:55:29.793Z,1560
2017-01-29T11:56:44.522Z,2090
2017-01-29T11:57:58.874Z,2145
2017-01-29T11:59:13.241Z,2800
2017-01-29T12:00:27.603Z,2675
2017-01-29T12:01:42.007Z,2505
2017-01-29T12:02:56.375Z,2210
2017-01-29T12:04:10.746Z,2250
2017-01-29T12:05:24.472Z,2095
2017-01-29T12:06:38.186Z,1500
2017-01-29T12:07:52.555Z,1355
2017-01-29T12:09:06.920Z,1175
2017-01-29T12:10:20.684Z,1170
2017-01-29T12:11:35.121Z,1155
2017-01-29T12:12:48.852Z,1140
2017-01-29T12:14:03.239Z,1205
2017-01-29T12:15:17.581Z,1405
2017-01-29T12:16:32.010Z,1715
2017-01-29T12:17:45.803Z,1855
2017-01-29T12:19:00.166Z,1900
2017-01-29T12:20:13.888Z,1955
2017-01-29T12:21:28.253Z,1905
2017-01-29T12:22:41.968Z,2210
2017-01-29T12:23:56.351Z,2280
2017-01-29T12:25:10.077Z,2460
2017-01-29T12:26:24.463Z,2480
2017-01-29T12:27:38.801Z,2290
2017-01-29T12:28:52.565Z,2115
2017-01-29T12:30:06.929Z,2315
2017-01-29T12:31:21.301Z,2700
2017-01-29T12:32:35.947Z,2440
2017-01-29T12:34:13.993Z,2445
2017-01-29T12:35:28.411Z,2545
2017-01-29T12:36:42.817Z,740
2017-01-29T12:37:57.169Z,825
2017-01-29T12:39:11.535Z,3155
2017-01-29T12:40:25.907Z,3325
2017-01-29T12:41:40.348Z,3480
2017-01-29T12:42:52.814Z,3570
2017-01-29T12:44:07.205Z,3885
2017-01-29T12:45:21.567Z,3905
2017-01-29T12:46:35.955Z,3790
2017-01-29T12:47:50.342Z,3430
2017-01-29T12:49:04.697Z,3130
2017-01-29T12:50:18.424Z,3510
2017-01-29T12:51:32.818Z,3300
2017-01-29T12:52:46.574Z,3015
2017-01-29T12:54:00.953Z,3225
2017-01-29T12:55:14.702Z,3435
2017-01-29T12:56:29.066Z,3010
2017-01-29T12:57:43.471Z,3655
2017-01-29T12:58:57.918Z,4045
2017-01-29T13:00:12.388Z,3940
2017-01-29T13:01:26.144Z,3880
2017-01-29T13:02:40.507Z,3590
2017-01-29T13:03:54.898Z,3035
2017-01-29T13:05:08.665Z,2950
2017-01-29T13:06:23.207Z,4025
2017-01-29T13:07:37.572Z,3790
2017-01-29T13:08:51.969Z,3880
2017-01-29T13:10:05.094Z,4020
2017-01-29T13:11:19.463Z,4175
2017-01-29T13:12:33.834Z,3810
2017-01-29T13:13:48.234Z,3900
2017-01-29T13:15:02.614Z,3930
2017-01-29T13:16:17.025Z,3700
2017-01-29T13:17:31.387Z,3415
2017-01-29T13:18:45.844Z,3755
2017-01-29T13:20:00.275Z,4080
2017-01-29T13:21:14.679Z,3925
2017-01-29T13:22:29.043Z,4020
2017-01-29T13:23:42.757Z,3955
2017-01-29T13:24:57.124Z,4335
2017-01-29T13:26:11.494Z,4005
2017-01-29T13:27:25.241Z,3915
2017-01-29T13:28:39.001Z,4220
2017-01-29T13:29:52.718Z,4385
2017-01-29T13:31:07.121Z,4335
2017-01-29T13:32:20.858Z,4280
2017-01-29T13:33:35.284Z,4265
2017-01-29T13:34:49.651Z,4375
2017-01-29T13:36:04.035Z,4410
2017-01-29T13:37:17.753Z,4535
2017-01-29T13:38:32.138Z,4520
2017-01-29T13:39:46.481Z,3935
2017-01-29T13:41:00.854Z,3495
2017-01-29T13:42:15.259Z,3880
2017-01-29T13:43:29.609Z,4170
2017-01-29T13:44:43.997Z,4395
2017-01-29T13:45:58.377Z,4365
2017-01-29T13:47:12.738Z,4385
2017-01-29T13:48:27.157Z,4440
2017-01-29T13:49:41.570Z,4495
2017-01-29T13:50:54.674Z,4595
2017-01-29T13:52:09.051Z,4330
2017-01-29T13:53:23.421Z,4210
2017-01-29T13:54:37.809Z,3780
2017-01-29T13:55:52.214Z,3615
2017-01-29T13:57:05.933Z,4005
2017-01-29T13:58:20.310Z,4355
2017-01-29T13:59:34.690Z,4470
2017-01-29T14:00:48.424Z,4560
2017-01-29T14:02:02.786Z,2700
2017-01-29T14:03:16.506Z,1535
2017-01-29T14:04:30.907Z,2550
2017-01-29T14:05:45.327Z,2550
2017-01-29T14:06:59.726Z,4615
2017-01-29T14:08:13.479Z,4930
2017-01-29T14:09:27.886Z,4805
2017-01-29T14:10:42.263Z,4785
2017-01-29T14:11:56.018Z,3705
2017-01-29T14:13:10.421Z,3075
2017-01-29T14:14:24.796Z,4240
2017-01-29T14:15:39.382Z,4820
2017-01-29T14:16:53.780Z,5085
2017-01-29T14:18:07.530Z,5090
2017-01-29T14:19:21.287Z,5000
2017-01-29T14:20:35.660Z,5065
2017-01-29T14:21:50.049Z,5015
2017-01-29T14:23:04.485Z,4915
2017-01-29T14:24:18.243Z,5025
2017-01-29T14:25:32.620Z,4955
2017-01-29T14:26:47.010Z,4735
2017-01-29T14:28:01.405Z,4860
2017-01-29T14:29:15.149Z,4710
2017-01-29T14:30:29.554Z,4940
2017-01-29T14:31:43.941Z,5100
2017-01-29T14:32:57.053Z,4960
2017-01-29T14:34:11.473Z,5075
2017-01-29T14:35:25.207Z,5090
2017-01-29T14:36:39.559Z,5075
2017-01-29T14:37:53.296Z,4780
2017-01-29T14:39:07.683Z,4950
2017-01-29T14:40:21.423Z,5045
2017-01-29T15:57:31.453Z,5120
2017-01-29T15:58:45.881Z,5150
2017-01-29T16:00:00.283Z,5085
2017-01-29T16:01:14.675Z,4960
2017-01-29T16:07:54.438Z,1250
2017-01-29T16:09:08.870Z,1500
2017-01-29T16:10:22.621Z,1280
2017-01-29T16:11:37.014Z,1245
2017-01-29T16:12:51.424Z,1210
2017-01-29T16:14:05.831Z,1210
2017-01-29T16:15:20.240Z,1595
2017-01-29T16:16:34.655Z,1380
2017-01-29T16:17:49.005Z,3450
2017-01-29T16:19:02.717Z,4840
2017-01-29T16:20:15.820Z,4755
2017-01-29T16:21:30.235Z,4670
2017-01-29T16:22:44.639Z,4800
2017-01-29T16:23:58.371Z,4845
2017-01-29T16:25:12.744Z,4950
2017-01-29T16:26:27.127Z,4760
2017-01-29T16:27:41.529Z,4720
2017-01-29T16:28:55.913Z,4965
2017-01-29T16:30:10.284Z,4770
2017-01-29T16:31:24.023Z,4770
2017-01-29T16:32:38.426Z,4750
2017-01-29T16:33:52.863Z,4695
2017-01-29T16:35:07.269Z,4545
2017-01-29T16:36:21.669Z,4500
2017-01-29T16:37:36.084Z,1580
2017-01-29T16:38:50.456Z,1505
2017-01-29T16:40:04.154Z,4745
2017-01-29T16:41:18.511Z,4540
2017-01-29T16:42:32.892Z,4595
2017-01-29T16:43:46.619Z,4485
2017-01-29T16:45:01.000Z,4375
2017-01-29T16:46:14.809Z,4805
2017-01-29T16:47:29.234Z,4680
2017-01-29T16:48:43.640Z,4310
2017-01-29T16:49:58.104Z,4130
2017-01-29T16:51:12.498Z,4275
2017-01-29T16:52:26.259Z,4320
2017-01-29T16:53:40.657Z,4100
2017-01-29T16:54:55.054Z,1980
2017-01-29T16:56:08.849Z,1570
2017-01-29T16:57:22.593Z,1675
2017-01-29T16:58:36.986Z,2210
2017-01-29T16:59:51.379Z,4555
2017-01-29T17:01:05.825Z,4450
2017-01-29T17:02:20.224Z,4555
2017-01-29T17:03:34.602Z,4365
2017-01-29T17:04:49.036Z,2320
2017-01-29T17:06:03.390Z,3340
2017-01-29T17:07:17.757Z,4345
2017-01-29T17:08:32.153Z,4155
2017-01-29T17:09:45.910Z,3955
2017-01-29T17:11:00.317Z,3995
2017-01-29T17:12:14.080Z,4025
2017-01-29T17:13:28.511Z,3935
2017-01-29T17:14:42.912Z,4030
2017-01-29T17:15:57.306Z,4115
2017-01-29T17:17:11.712Z,3970
2017-01-29T17:18:25.479Z,3800
2017-01-29T17:19:39.879Z,3975
2017-01-29T17:20:54.263Z,3940
2017-01-29T17:22:08.656Z,3915
2017-01-29T17:23:21.723Z,3620
2017-01-29T17:24:36.102Z,3305
2017-01-29T17:25:50.495Z,3435
2017-01-29T17:27:04.250Z,3220
2017-01-29T17:28:18.017Z,3570
2017-01-29T17:29:31.771Z,3720
2017-01-29T17:30:46.157Z,3665
2017-01-29T17:32:00.528Z,3645
2017-01-29T17:33:14.926Z,3505
2017-01-29T17:34:28.655Z,3670
2017-01-29T17:35:43.057Z,3580
2017-01-29T17:36:56.800Z,3530
2017-01-29T17:38:11.213Z,3570
2017-01-29T17:39:24.944Z,3390
2017-01-29T17:40:39.373Z,3530
2017-01-29T17:41:53.121Z,3420
2017-01-29T17:43:07.498Z,3355
2017-01-29T17:44:20.601Z,3265
2017-01-29T17:45:35.030Z,3465
2017-01-29T17:46:49.426Z,3430
2017-01-29T17:48:03.845Z,3275
2017-01-29T17:49:18.259Z,3085
2017-01-29T17:50:32.655Z,3310
2017-01-29T17:51:46.996Z,3585
2017-01-29T17:53:01.404Z,3410
2017-01-29T17:54:15.786Z,1520
2017-01-29T17:55:30.447Z,2180
2017-01-29T17:56:44.850Z,1145
2017-01-29T17:57:58.604Z,1125
2017-01-29T17:59:13.000Z,1205
2017-01-29T18:00:26.080Z,1355
2017-01-29T18:01:40.484Z,3230
2017-01-29T18:02:54.848Z,2880
2017-01-29T18:04:09.262Z,1230
2017-01-29T18:05:23.005Z,1890
2017-01-29T18:06:37.429Z,2840
2017-01-29T18:07:51.799Z,2855
2017-01-29T18:09:06.214Z,1475
2017-01-29T18:10:19.958Z,1305
2017-01-29T18:11:34.321Z,2910
2017-01-29T18:12:48.708Z,2820
2017-01-29T18:14:03.051Z,2930
2017-01-29T18:15:17.429Z,2130
2017-01-29T18:16:31.774Z,1100
2017-01-29T18:17:46.208Z,1885
2017-01-29T18:19:00.000Z,2030
2017-01-29T18:20:14.371Z,2335
2017-01-29T18:21:28.718Z,2770
2017-01-29T18:22:43.079Z,2675
2017-01-29T18:23:56.819Z,3030
2017-01-29T18:25:10.546Z,3225
2017-01-29T18:26:24.919Z,3185
2017-01-29T18:27:39.303Z,2855
2017-01-29T18:28:53.102Z,3085
2017-01-29T18:30:07.467Z,2225
2017-01-29T18:31:21.160Z,2975
2017-01-29T18:32:35.506Z,2850
2017-01-29T18:33:49.244Z,2645
2017-01-29T18:35:03.646Z,2740
2017-01-29T18:36:17.389Z,2845
2017-01-29T18:37:31.763Z,2650
2017-01-29T18:38:46.179Z,2530
2017-01-29T18:39:59.913Z,2215
2017-01-29T18:41:13.720Z,2260
2017-01-29T18:42:28.089Z,2210
2017-01-29T18:43:42.439Z,2195
2017-01-29T18:44:56.167Z,2250
2017-01-29T18:46:09.897Z,2400